M/V Alton St. Amant — WDE7604 — position and weather

sailwx.info

Track history (hours):
 
Tides and Currents Weather Stations Pressure Air Temp Water Temp Dewpoint Dewpoint Depression Visibility Wind Speed Wind Dir Waves Ship Positions

M/V Alton St. Amant

Owner: The Barge Investment Group Five, L.L.C., Harahan, LA. More information available from US FCC via Universal Licensing System and Coast Guard Vessel Documentation Center.

Last reported at 2018-Jul-20 10:30 UTC. Time now 2018-Jul-20 10:51 UTC.
Position N 29°44' W 095°01'.

Length 25 m; draft 3 m.

Type: Towing. MMSI: 367395270.

Date/timePositionNaut miles runAvg speedWind from/ knotsBaromVisibWave heightAir tempDewpointWater temp
2018-Jul-20 10:30N 29°44' W 095°01'0 0.0
2018-Jul-20 09:57N 29°44' W 095°01'0 0.0
2018-Jul-20 09:19N 29°44' W 095°01'0 0.0
2018-Jul-20 09:00N 29°44' W 095°01'0 0.0
2018-Jul-20 08:30N 29°44' W 095°01'0 0.0
2018-Jul-20 08:00N 29°44' W 095°01'0 0.0
2018-Jul-20 07:29N 29°44' W 095°01'0 0.0
2018-Jul-20 07:00N 29°44' W 095°01'0 0.0
2018-Jul-20 06:30N 29°44' W 095°01'0 0.0
2018-Jul-20 06:00N 29°44' W 095°01'0 0.0
2018-Jul-20 05:30N 29°44' W 095°01'0 0.0
2018-Jul-20 04:59N 29°44' W 095°01'0 0.0
2018-Jul-20 04:30N 29°44' W 095°01'0 0.0
2018-Jul-20 04:00N 29°44' W 095°01'0 0.0
2018-Jul-20 03:28N 29°44' W 095°01'0 0.0
2018-Jul-20 02:58N 29°44' W 095°01'0 0.0
2018-Jul-20 02:30N 29°44' W 095°01'0 0.0
2018-Jul-19 14:19N 29°44' W 095°01'0 0.0
2018-Jul-19 13:00N 29°44' W 095°01'0 0.0
2018-Jul-19 12:27N 29°44' W 095°01'0 0.0
2018-Jul-19 11:57N 29°44' W 095°01'0 0.0
2018-Jul-19 11:29N 29°44' W 095°01'0 0.0
2018-Jul-19 11:00N 29°44' W 095°01'0 0.0
2018-Jul-19 10:30N 29°44' W 095°01'0 0.0
2018-Jul-19 10:00N 29°44' W 095°01'0 0.0
2018-Jul-19 09:30N 29°44' W 095°01'0 0.0
2018-Jul-19 08:49N 29°44' W 095°01'0 0.0
2018-Jul-19 08:30N 29°44' W 095°01'0 0.0
2018-Jul-19 07:57N 29°44' W 095°01'0 0.0
2018-Jul-19 07:25N 29°44' W 095°01'0 0.0
2018-Jul-19 07:00N 29°44' W 095°01'0 0.0
2018-Jul-19 06:30N 29°44' W 095°01'0 0.1
2018-Jul-19 06:00N 29°44' W 095°01'0 0.0
2018-Jul-19 05:30N 29°44' W 095°01'0 0.0
2018-Jul-19 05:00N 29°44' W 095°01'0 0.0
2018-Jul-19 04:30N 29°44' W 095°01'0 0.0
2018-Jul-19 04:00N 29°44' W 095°01'0 0.0
2018-Jul-19 03:30N 29°44' W 095°01'0 0.0
2018-Jul-19 02:55N 29°44' W 095°01'0 0.0
2018-Jul-19 02:30N 29°44' W 095°01'0 0.0
2018-Jul-19 01:57N 29°44' W 095°01'0 0.0
2018-Jul-19 00:26N 29°44' W 095°01'0 0.0
2018-Jul-18 17:11N 29°44' W 095°01'0 0.0
2018-Jul-18 14:10N 29°44' W 095°01'0 0.0
2018-Jul-18 13:29N 29°44' W 095°01'0 0.5
2018-Jul-18 12:58N 29°44' W 095°02'2 4.0
2018-Jul-18 12:30N 29°44' W 095°04'2 4.0
2018-Jul-18 12:00N 29°46' W 095°05'1 2.5
2018-Jul-18 11:30N 29°47' W 095°04'0 0.5
2018-Jul-18 10:29N 29°47' W 095°05'0 0.1
2018-Jul-18 10:00N 29°47' W 095°05'0 0.0
2018-Jul-18 09:30N 29°47' W 095°05'0 0.0
2018-Jul-18 09:00N 29°47' W 095°05'0 0.0
2018-Jul-18 08:30N 29°47' W 095°05'0 0.0
2018-Jul-18 08:00N 29°47' W 095°05'0 0.0
2018-Jul-18 07:30N 29°47' W 095°05'0 0.1
2018-Jul-18 07:00N 29°47' W 095°05'0 0.0
2018-Jul-18 06:30N 29°47' W 095°05'0 0.3
2018-Jul-18 06:00N 29°47' W 095°05'0 0.8
2018-Jul-18 05:29N 29°47' W 095°04'2 2.8
2018-Jul-18 04:55N 29°46' W 095°05'3 7.3
2018-Jul-18 04:30N 29°44' W 095°02'1 1.0
2018-Jul-18 03:44N 29°44' W 095°01'0 0.6
2018-Jul-18 03:28N 29°44' W 095°01'0 0.0
2018-Jul-18 02:37N 29°44' W 095°01'0 0.0
2018-Jul-17 13:58N 29°44' W 095°01'0 0.0
2018-Jul-17 13:08N 29°44' W 095°01'0 0.0
2018-Jul-17 12:37N 29°44' W 095°01'0 0.3
2018-Jul-17 12:29N 29°44' W 095°01'1 1.4
2018-Jul-17 11:57N 29°43' W 095°01'2 3.5
2018-Jul-17 11:29N 29°42' W 094°60'3 6.0
2018-Jul-17 11:01N 29°39' W 094°58'3 6.4
2018-Jul-17 10:30N 29°36' W 094°57'3 6.4
2018-Jul-17 10:00N 29°34' W 094°55'3 6.3
2018-Jul-17 09:31N 29°31' W 094°53'3 6.0
2018-Jul-17 09:00N 29°28' W 094°51'3 5.9
2018-Jul-17 08:30N 29°26' W 094°50'3 5.4
2018-Jul-17 08:00N 29°23' W 094°49'2 3.4
2018-Jul-17 07:30N 29°22' W 094°49'3 5.8
2018-Jul-17 07:00N 29°23' W 094°52'0 0.8
2018-Jul-17 06:30N 29°23' W 094°52'0 0.1
2018-Jul-17 06:00N 29°23' W 094°52'1 1.8
2018-Jul-17 05:31N 29°23' W 094°53'0 0.6
2018-Jul-17 05:00N 29°23' W 094°53'0 0.0
2018-Jul-17 04:30N 29°23' W 094°53'0 0.0
2018-Jul-17 04:00N 29°23' W 094°53'0 0.0
2018-Jul-17 03:30N 29°23' W 094°53'0 0.0
2018-Jul-17 03:00N 29°23' W 094°53'0 0.0
2018-Jul-17 02:30N 29°23' W 094°53'0 0.0
2018-Jul-17 02:00N 29°23' W 094°53'0 0.0
2018-Jul-17 01:30N 29°23' W 094°53'0 0.0
2018-Jul-17 01:00N 29°23' W 094°53'0 0.0
2018-Jul-17 00:29N 29°23' W 094°53'0 0.0
2018-Jul-16 23:30N 29°23' W 094°53'0 0.0
2018-Jul-16 23:00N 29°23' W 094°53'0 0.0
2018-Jul-16 22:30N 29°23' W 094°53'0 0.0
2018-Jul-16 22:00N 29°23' W 094°53'0 0.0
2018-Jul-16 21:30N 29°23' W 094°53'0 0.0
2018-Jul-16 20:58N 29°23' W 094°53'0 0.0
2018-Jul-16 20:30N 29°23' W 094°53'0 0.0
2018-Jul-16 19:56N 29°23' W 094°53'0 0.0
2018-Jul-16 19:30N 29°23' W 094°53'0 0.0
2018-Jul-16 18:59N 29°23' W 094°53'0 0.0
2018-Jul-16 18:30N 29°23' W 094°53'0 0.0
2018-Jul-16 18:00N 29°23' W 094°53'0 0.0
2018-Jul-16 17:26N 29°23' W 094°53'0 0.0
2018-Jul-16 16:59N 29°23' W 094°53'0 0.0
2018-Jul-16 16:26N 29°23' W 094°53'0 0.0
2018-Jul-16 16:00N 29°23' W 094°53'0 0.0
2018-Jul-16 15:30N 29°23' W 094°53'0 0.0
2018-Jul-16 14:58N 29°23' W 094°53'0 0.0
2018-Jul-16 14:30N 29°23' W 094°53'0 0.0
2018-Jul-16 13:59N 29°23' W 094°53'0 0.0
2018-Jul-16 13:30N 29°23' W 094°53'0 0.0
2018-Jul-16 13:00N 29°23' W 094°53'0 0.0
2018-Jul-16 12:29N 29°23' W 094°53'0 0.0
2018-Jul-16 12:00N 29°23' W 094°53'0 0.0
2018-Jul-16 11:29N 29°23' W 094°53'0 0.0
2018-Jul-16 11:00N 29°23' W 094°53'0 0.0
2018-Jul-16 10:31N 29°23' W 094°53'0 0.0
2018-Jul-16 10:00N 29°23' W 094°53'0 0.0
2018-Jul-16 09:29N 29°23' W 094°53'0 0.0
2018-Jul-16 09:00N 29°23' W 094°53'0 0.0
2018-Jul-16 08:30N 29°23' W 094°53'0 0.0
2018-Jul-16 07:58N 29°23' W 094°53'0 0.0
2018-Jul-16 07:31N 29°23' W 094°53'0 0.0
2018-Jul-16 06:52N 29°23' W 094°53'0 0.0
2018-Jul-16 06:30N 29°23' W 094°53'0 0.0
2018-Jul-16 06:00N 29°23' W 094°53'0 0.0
2018-Jul-16 05:29N 29°23' W 094°53'1 2.0
2018-Jul-16 05:00N 29°23' W 094°52'0 0.4
2018-Jul-16 04:30N 29°23' W 094°52'0 0.0
2018-Jul-16 03:56N 29°23' W 094°52'0 0.0
2018-Jul-16 03:29N 29°23' W 094°52'0 0.0
2018-Jul-16 02:59N 29°23' W 094°52'0 0.0
2018-Jul-16 02:29N 29°23' W 094°52'0 0.0
2018-Jul-16 02:00N 29°23' W 094°52'0 0.0
2018-Jul-16 01:30N 29°23' W 094°52'0 0.0
2018-Jul-16 01:00N 29°23' W 094°52'0 0.0
2018-Jul-16 00:28N 29°23' W 094°52'0 0.0
2018-Jul-16 00:00N 29°23' W 094°52'0 0.0
2018-Jul-15 23:30N 29°23' W 094°52'0 0.0
2018-Jul-15 23:00N 29°23' W 094°52'0 0.0
2018-Jul-15 22:30N 29°23' W 094°52'0 0.0
2018-Jul-15 22:00N 29°23' W 094°52'0 0.0
2018-Jul-15 21:29N 29°23' W 094°52'0 0.0
2018-Jul-15 20:59N 29°23' W 094°52'0 0.0
2018-Jul-15 20:30N 29°23' W 094°52'0 0.0
2018-Jul-15 20:00N 29°23' W 094°52'0 0.0
2018-Jul-15 19:30N 29°23' W 094°52'0 0.0
2018-Jul-15 19:00N 29°23' W 094°52'0 0.0
2018-Jul-15 18:30N 29°23' W 094°52'0 0.0
2018-Jul-15 18:00N 29°23' W 094°52'0 0.0
2018-Jul-15 17:30N 29°23' W 094°52'0 0.0
2018-Jul-15 17:00N 29°23' W 094°52'0 0.0
2018-Jul-15 16:23N 29°23' W 094°52'0 0.0
2018-Jul-15 16:00N 29°23' W 094°52'0 0.0
2018-Jul-15 15:30N 29°23' W 094°52'0 0.0
2018-Jul-15 14:50N 29°23' W 094°52'0 0.0
2018-Jul-15 14:29N 29°23' W 094°52'0 0.0
2018-Jul-15 13:52N 29°23' W 094°52'0 0.0
2018-Jul-15 13:30N 29°23' W 094°52'0 0.0
2018-Jul-15 12:59N 29°23' W 094°52'0 0.0
2018-Jul-15 12:16N 29°23' W 094°52'0 0.0
2018-Jul-15 11:53N 29°23' W 094°52'0 0.0
2018-Jul-15 11:30N 29°23' W 094°52'0 0.0
2018-Jul-15 11:00N 29°23' W 094°52'0 0.0
2018-Jul-15 10:30N 29°23' W 094°52'0 0.0
2018-Jul-15 09:57N 29°23' W 094°52'0 0.0
2018-Jul-15 09:16N 29°23' W 094°52'0 0.0
2018-Jul-15 08:59N 29°23' W 094°52'0 0.0
2018-Jul-15 08:30N 29°23' W 094°52'0 0.0
2018-Jul-15 07:53N 29°23' W 094°52'0 0.0
2018-Jul-15 07:28N 29°23' W 094°52'0 0.0
2018-Jul-15 07:00N 29°23' W 094°52'0 0.0
2018-Jul-15 06:30N 29°23' W 094°52'0 0.0
2018-Jul-15 05:59N 29°23' W 094°52'0 0.0
2018-Jul-15 05:28N 29°23' W 094°52'0 0.0
2018-Jul-15 05:00N 29°23' W 094°52'0 0.0
2018-Jul-15 04:30N 29°23' W 094°52'0 0.0
2018-Jul-15 04:00N 29°23' W 094°52'0 0.0
2018-Jul-15 03:30N 29°23' W 094°52'0 0.0
2018-Jul-15 03:00N 29°23' W 094°52'0 0.0
2018-Jul-15 02:29N 29°23' W 094°52'0 0.0
2018-Jul-15 01:56N 29°23' W 094°52'0 0.0
2018-Jul-15 01:30N 29°23' W 094°52'0 0.0
2018-Jul-15 00:56N 29°23' W 094°52'0 0.0
2018-Jul-15 00:28N 29°23' W 094°52'0 0.0
2018-Jul-14 23:58N 29°23' W 094°52'0 0.0
2018-Jul-14 23:27N 29°23' W 094°52'0 0.0
2018-Jul-14 23:00N 29°23' W 094°52'0 0.0
2018-Jul-14 22:30N 29°23' W 094°52'0 0.0
2018-Jul-14 22:00N 29°23' W 094°52'0 0.0
2018-Jul-14 21:30N 29°23' W 094°52'0 0.0
2018-Jul-14 21:00N 29°23' W 094°52'0 0.0
2018-Jul-14 20:30N 29°23' W 094°52'0 0.0
2018-Jul-14 20:00N 29°23' W 094°52'0 0.0
2018-Jul-14 19:23N 29°23' W 094°52'0 0.0
2018-Jul-14 19:00N 29°23' W 094°52'0 0.0
2018-Jul-14 18:30N 29°23' W 094°52'0 0.0
2018-Jul-14 18:00N 29°23' W 094°52'0 0.0
2018-Jul-14 17:30N 29°23' W 094°52'0 0.0
2018-Jul-14 17:00N 29°23' W 094°52'0 0.0
2018-Jul-14 16:30N 29°23' W 094°52'0 0.0
2018-Jul-14 16:00N 29°23' W 094°52'0 0.0
2018-Jul-14 15:29N 29°23' W 094°52'0 0.0
2018-Jul-14 14:59N 29°23' W 094°52'0 0.4
2018-Jul-14 14:30N 29°23' W 094°52'3 3.0
2018-Jul-14 13:30N 29°23' W 094°49'3 5.4
2018-Jul-14 12:59N 29°26' W 094°50'4 6.0
2018-Jul-14 12:19N 29°29' W 094°52'3 6.1
2018-Jul-14 11:52N 29°32' W 094°54'2 6.3
2018-Jul-14 11:30N 29°34' W 094°55'3 6.9
2018-Jul-14 11:00N 29°36' W 094°57'4 7.2
2018-Jul-14 10:30N 29°40' W 094°58'3 6.7
2018-Jul-14 10:00N 29°42' W 095°01'3 6.3
2018-Jul-14 09:29N 29°45' W 095°04'1 0.6
2018-Jul-14 07:13N 29°46' W 095°05'2 7.0
2018-Jul-14 06:59N 29°44' W 095°03'3 6.5
2018-Jul-14 06:30N 29°42' W 095°01'3 6.6
2018-Jul-14 06:00N 29°40' W 094°58'4 7.6
2018-Jul-14 05:30N 29°36' W 094°57'4 7.3
2018-Jul-14 05:00N 29°33' W 094°55'4 7.0
2018-Jul-14 04:29N 29°30' W 094°52'4 7.1
2018-Jul-14 03:59N 29°27' W 094°50'3 6.8
2018-Jul-14 03:30N 29°24' W 094°49'2 4.2
2018-Jul-14 02:58N 29°22' W 094°49'3 7.4
2018-Jul-14 02:30N 29°23' W 094°53'1 0.0
2018-Jul-13 04:34N 29°23' W 094°53'0 0.0
2018-Jul-13 03:46N 29°23' W 094°53'0 0.0
2018-Jul-12 05:22N 29°23' W 094°53'0 0.0
2018-Jul-12 05:00N 29°23' W 094°53'0 0.0
2018-Jul-12 04:30N 29°23' W 094°53'0 0.0
2018-Jul-12 03:54N 29°23' W 094°53'0 0.0
2018-Jul-12 03:30N 29°23' W 094°53'0 0.0
2018-Jul-12 03:00N 29°23' W 094°53'1 0.1
2018-Jul-11 16:01N 29°23' W 094°52'0 0.0
2018-Jul-11 14:27N 29°23' W 094°52'0 0.0
2018-Jul-11 13:55N 29°23' W 094°52'0 0.0
2018-Jul-11 13:29N 29°23' W 094°52'0 0.0
2018-Jul-11 12:56N 29°23' W 094°52'0 0.0
2018-Jul-11 12:25N 29°23' W 094°52'0 0.0
2018-Jul-11 11:48N 29°23' W 094°52'0 0.0
2018-Jul-11 11:25N 29°23' W 094°52'0 0.0
2018-Jul-11 10:58N 29°23' W 094°52'0 0.0
2018-Jul-11 10:30N 29°23' W 094°52'0 0.0
2018-Jul-11 10:00N 29°23' W 094°52'0 0.0
2018-Jul-11 09:29N 29°23' W 094°52'0 0.0
2018-Jul-11 09:00N 29°23' W 094°52'0 0.0
2018-Jul-11 08:30N 29°23' W 094°52'0 0.0
2018-Jul-11 08:00N 29°23' W 094°52'0 0.0
2018-Jul-11 07:31N 29°23' W 094°52'0 0.1
2018-Jul-11 07:00N 29°23' W 094°52'3 6.3
2018-Jul-11 06:27N 29°22' W 094°48'3 7.2
2018-Jul-11 06:00N 29°25' W 094°50'5 9.5
2018-Jul-11 05:29N 29°29' W 094°52'5 9.6
2018-Jul-11 05:00N 29°33' W 094°55'5 9.4
2018-Jul-11 04:30N 29°37' W 094°57'5 9.9
2018-Jul-11 04:00N 29°42' W 094°60'5 8.8
2018-Jul-11 03:27N 29°45' W 095°04'2 4.8
2018-Jul-11 02:59N 29°47' W 095°04'0 0.6
2018-Jul-11 02:21N 29°47' W 095°05'0 0.4
2018-Jul-11 01:52N 29°47' W 095°05'0 0.2
2018-Jul-11 01:22N 29°47' W 095°05'0 0.0
2018-Jul-10 14:59N 29°47' W 095°05'0 0.2
2018-Jul-10 14:20N 29°47' W 095°05'0 0.3
2018-Jul-10 13:54N 29°47' W 095°05'0 0.1
2018-Jul-10 13:08N 29°47' W 095°05'0 0.0
2018-Jul-10 13:00N 29°47' W 095°05'0 0.0
2018-Jul-10 12:31N 29°47' W 095°05'0 0.0
2018-Jul-10 11:56N 29°47' W 095°05'0 0.0
2018-Jul-10 11:29N 29°47' W 095°05'  
Track history (hours):
 
Tides and Currents Weather Stations Pressure Air Temp Water Temp Dewpoint Dewpoint Depression Visibility Wind Speed Wind Dir Waves Ship Positions

M/V Alton St. Amant

Owner: The Barge Investment Group Five, L.L.C., Harahan, LA. More information available from US FCC via Universal Licensing System and Coast Guard Vessel Documentation Center.

Last reported at 2018-Jul-20 10:30 UTC. Time now 2018-Jul-20 10:51 UTC.
Position N 29°44' W 095°01'.

Length 25 m; draft 3 m.

Type: Towing. MMSI: 367395270.

Date/timePositionNaut miles runAvg speedWind from/ knotsBaromVisibWave heightAir tempDewpointWater temp
2018-Jul-20 10:30N 29°44' W 095°01'0 0.0
2018-Jul-20 09:57N 29°44' W 095°01'0 0.0
2018-Jul-20 09:19N 29°44' W 095°01'0 0.0
2018-Jul-20 09:00N 29°44' W 095°01'0 0.0
2018-Jul-20 08:30N 29°44' W 095°01'0 0.0
2018-Jul-20 08:00N 29°44' W 095°01'0 0.0
2018-Jul-20 07:29N 29°44' W 095°01'0 0.0
2018-Jul-20 07:00N 29°44' W 095°01'0 0.0
2018-Jul-20 06:30N 29°44' W 095°01'0 0.0
2018-Jul-20 06:00N 29°44' W 095°01'0 0.0
2018-Jul-20 05:30N 29°44' W 095°01'0 0.0
2018-Jul-20 04:59N 29°44' W 095°01'0 0.0
2018-Jul-20 04:30N 29°44' W 095°01'0 0.0
2018-Jul-20 04:00N 29°44' W 095°01'0 0.0
2018-Jul-20 03:28N 29°44' W 095°01'0 0.0
2018-Jul-20 02:58N 29°44' W 095°01'0 0.0
2018-Jul-20 02:30N 29°44' W 095°01'0 0.0
2018-Jul-19 14:19N 29°44' W 095°01'0 0.0
2018-Jul-19 13:00N 29°44' W 095°01'0 0.0
2018-Jul-19 12:27N 29°44' W 095°01'0 0.0
2018-Jul-19 11:57N 29°44' W 095°01'0 0.0
2018-Jul-19 11:29N 29°44' W 095°01'0 0.0
2018-Jul-19 11:00N 29°44' W 095°01'0 0.0
2018-Jul-19 10:30N 29°44' W 095°01'0 0.0
2018-Jul-19 10:00N 29°44' W 095°01'0 0.0
2018-Jul-19 09:30N 29°44' W 095°01'0 0.0
2018-Jul-19 08:49N 29°44' W 095°01'0 0.0
2018-Jul-19 08:30N 29°44' W 095°01'0 0.0
2018-Jul-19 07:57N 29°44' W 095°01'0 0.0
2018-Jul-19 07:25N 29°44' W 095°01'0 0.0
2018-Jul-19 07:00N 29°44' W 095°01'0 0.0
2018-Jul-19 06:30N 29°44' W 095°01'0 0.1
2018-Jul-19 06:00N 29°44' W 095°01'0 0.0
2018-Jul-19 05:30N 29°44' W 095°01'0 0.0
2018-Jul-19 05:00N 29°44' W 095°01'0 0.0
2018-Jul-19 04:30N 29°44' W 095°01'0 0.0
2018-Jul-19 04:00N 29°44' W 095°01'0 0.0
2018-Jul-19 03:30N 29°44' W 095°01'0 0.0
2018-Jul-19 02:55N 29°44' W 095°01'0 0.0
2018-Jul-19 02:30N 29°44' W 095°01'0 0.0
2018-Jul-19 01:57N 29°44' W 095°01'0 0.0
2018-Jul-19 00:26N 29°44' W 095°01'0 0.0
2018-Jul-18 17:11N 29°44' W 095°01'0 0.0
2018-Jul-18 14:10N 29°44' W 095°01'0 0.0
2018-Jul-18 13:29N 29°44' W 095°01'0 0.5
2018-Jul-18 12:58N 29°44' W 095°02'2 4.0
2018-Jul-18 12:30N 29°44' W 095°04'2 4.0
2018-Jul-18 12:00N 29°46' W 095°05'1 2.5
2018-Jul-18 11:30N 29°47' W 095°04'0 0.5
2018-Jul-18 10:29N 29°47' W 095°05'0 0.1
2018-Jul-18 10:00N 29°47' W 095°05'0 0.0
2018-Jul-18 09:30N 29°47' W 095°05'0 0.0
2018-Jul-18 09:00N 29°47' W 095°05'0 0.0
2018-Jul-18 08:30N 29°47' W 095°05'0 0.0
2018-Jul-18 08:00N 29°47' W 095°05'0 0.0
2018-Jul-18 07:30N 29°47' W 095°05'0 0.1
2018-Jul-18 07:00N 29°47' W 095°05'0 0.0
2018-Jul-18 06:30N 29°47' W 095°05'0 0.3
2018-Jul-18 06:00N 29°47' W 095°05'0 0.8
2018-Jul-18 05:29N 29°47' W 095°04'2 2.8
2018-Jul-18 04:55N 29°46' W 095°05'3 7.3
2018-Jul-18 04:30N 29°44' W 095°02'1 1.0
2018-Jul-18 03:44N 29°44' W 095°01'0 0.6
2018-Jul-18 03:28N 29°44' W 095°01'0 0.0
2018-Jul-18 02:37N 29°44' W 095°01'0 0.0
2018-Jul-17 13:58N 29°44' W 095°01'0 0.0
2018-Jul-17 13:08N 29°44' W 095°01'0 0.0
2018-Jul-17 12:37N 29°44' W 095°01'0 0.3
2018-Jul-17 12:29N 29°44' W 095°01'1 1.4
2018-Jul-17 11:57N 29°43' W 095°01'2 3.5
2018-Jul-17 11:29N 29°42' W 094°60'3 6.0
2018-Jul-17 11:01N 29°39' W 094°58'3 6.4
2018-Jul-17 10:30N 29°36' W 094°57'3 6.4
2018-Jul-17 10:00N 29°34' W 094°55'3 6.3
2018-Jul-17 09:31N 29°31' W 094°53'3 6.0
2018-Jul-17 09:00N 29°28' W 094°51'3 5.9
2018-Jul-17 08:30N 29°26' W 094°50'3 5.4
2018-Jul-17 08:00N 29°23' W 094°49'2 3.4
2018-Jul-17 07:30N 29°22' W 094°49'3 5.8
2018-Jul-17 07:00N 29°23' W 094°52'0 0.8
2018-Jul-17 06:30N 29°23' W 094°52'0 0.1
2018-Jul-17 06:00N 29°23' W 094°52'1 1.8
2018-Jul-17 05:31N 29°23' W 094°53'0 0.6
2018-Jul-17 05:00N 29°23' W 094°53'0 0.0
2018-Jul-17 04:30N 29°23' W 094°53'0 0.0
2018-Jul-17 04:00N 29°23' W 094°53'0 0.0
2018-Jul-17 03:30N 29°23' W 094°53'0 0.0
2018-Jul-17 03:00N 29°23' W 094°53'0 0.0
2018-Jul-17 02:30N 29°23' W 094°53'0 0.0
2018-Jul-17 02:00N 29°23' W 094°53'0 0.0
2018-Jul-17 01:30N 29°23' W 094°53'0 0.0
2018-Jul-17 01:00N 29°23' W 094°53'0 0.0
2018-Jul-17 00:29N 29°23' W 094°53'0 0.0
2018-Jul-16 23:30N 29°23' W 094°53'0 0.0
2018-Jul-16 23:00N 29°23' W 094°53'0 0.0
2018-Jul-16 22:30N 29°23' W 094°53'0 0.0
2018-Jul-16 22:00N 29°23' W 094°53'0 0.0
2018-Jul-16 21:30N 29°23' W 094°53'0 0.0
2018-Jul-16 20:58N 29°23' W 094°53'0 0.0
2018-Jul-16 20:30N 29°23' W 094°53'0 0.0
2018-Jul-16 19:56N 29°23' W 094°53'0 0.0
2018-Jul-16 19:30N 29°23' W 094°53'0 0.0
2018-Jul-16 18:59N 29°23' W 094°53'0 0.0
2018-Jul-16 18:30N 29°23' W 094°53'0 0.0
2018-Jul-16 18:00N 29°23' W 094°53'0 0.0
2018-Jul-16 17:26N 29°23' W 094°53'0 0.0
2018-Jul-16 16:59N 29°23' W 094°53'0 0.0
2018-Jul-16 16:26N 29°23' W 094°53'0 0.0
2018-Jul-16 16:00N 29°23' W 094°53'0 0.0
2018-Jul-16 15:30N 29°23' W 094°53'0 0.0
2018-Jul-16 14:58N 29°23' W 094°53'0 0.0
2018-Jul-16 14:30N 29°23' W 094°53'0 0.0
2018-Jul-16 13:59N 29°23' W 094°53'0 0.0
2018-Jul-16 13:30N 29°23' W 094°53'0 0.0
2018-Jul-16 13:00N 29°23' W 094°53'0 0.0
2018-Jul-16 12:29N 29°23' W 094°53'0 0.0
2018-Jul-16 12:00N 29°23' W 094°53'0 0.0
2018-Jul-16 11:29N 29°23' W 094°53'0 0.0
2018-Jul-16 11:00N 29°23' W 094°53'0 0.0
2018-Jul-16 10:31N 29°23' W 094°53'0 0.0
2018-Jul-16 10:00N 29°23' W 094°53'0 0.0
2018-Jul-16 09:29N 29°23' W 094°53'0 0.0
2018-Jul-16 09:00N 29°23' W 094°53'0 0.0
2018-Jul-16 08:30N 29°23' W 094°53'0 0.0
2018-Jul-16 07:58N 29°23' W 094°53'0 0.0
2018-Jul-16 07:31N 29°23' W 094°53'0 0.0
2018-Jul-16 06:52N 29°23' W 094°53'0 0.0
2018-Jul-16 06:30N 29°23' W 094°53'0 0.0
2018-Jul-16 06:00N 29°23' W 094°53'0 0.0
2018-Jul-16 05:29N 29°23' W 094°53'1 2.0
2018-Jul-16 05:00N 29°23' W 094°52'0 0.4
2018-Jul-16 04:30N 29°23' W 094°52'0 0.0
2018-Jul-16 03:56N 29°23' W 094°52'0 0.0
2018-Jul-16 03:29N 29°23' W 094°52'0 0.0
2018-Jul-16 02:59N 29°23' W 094°52'0 0.0
2018-Jul-16 02:29N 29°23' W 094°52'0 0.0
2018-Jul-16 02:00N 29°23' W 094°52'0 0.0
2018-Jul-16 01:30N 29°23' W 094°52'0 0.0
2018-Jul-16 01:00N 29°23' W 094°52'0 0.0
2018-Jul-16 00:28N 29°23' W 094°52'0 0.0
2018-Jul-16 00:00N 29°23' W 094°52'0 0.0
2018-Jul-15 23:30N 29°23' W 094°52'0 0.0
2018-Jul-15 23:00N 29°23' W 094°52'0 0.0
2018-Jul-15 22:30N 29°23' W 094°52'0 0.0
2018-Jul-15 22:00N 29°23' W 094°52'0 0.0
2018-Jul-15 21:29N 29°23' W 094°52'0 0.0
2018-Jul-15 20:59N 29°23' W 094°52'0 0.0
2018-Jul-15 20:30N 29°23' W 094°52'0 0.0
2018-Jul-15 20:00N 29°23' W 094°52'0 0.0
2018-Jul-15 19:30N 29°23' W 094°52'0 0.0
2018-Jul-15 19:00N 29°23' W 094°52'0 0.0
2018-Jul-15 18:30N 29°23' W 094°52'0 0.0
2018-Jul-15 18:00N 29°23' W 094°52'0 0.0
2018-Jul-15 17:30N 29°23' W 094°52'0 0.0
2018-Jul-15 17:00N 29°23' W 094°52'0 0.0
2018-Jul-15 16:23N 29°23' W 094°52'0 0.0
2018-Jul-15 16:00N 29°23' W 094°52'0 0.0
2018-Jul-15 15:30N 29°23' W 094°52'0 0.0
2018-Jul-15 14:50N 29°23' W 094°52'0 0.0
2018-Jul-15 14:29N 29°23' W 094°52'0 0.0
2018-Jul-15 13:52N 29°23' W 094°52'0 0.0
2018-Jul-15 13:30N 29°23' W 094°52'0 0.0
2018-Jul-15 12:59N 29°23' W 094°52'0 0.0
2018-Jul-15 12:16N 29°23' W 094°52'0 0.0
2018-Jul-15 11:53N 29°23' W 094°52'0 0.0
2018-Jul-15 11:30N 29°23' W 094°52'0 0.0
2018-Jul-15 11:00N 29°23' W 094°52'0 0.0
2018-Jul-15 10:30N 29°23' W 094°52'0 0.0
2018-Jul-15 09:57N 29°23' W 094°52'0 0.0
2018-Jul-15 09:16N 29°23' W 094°52'0 0.0
2018-Jul-15 08:59N 29°23' W 094°52'0 0.0
2018-Jul-15 08:30N 29°23' W 094°52'0 0.0
2018-Jul-15 07:53N 29°23' W 094°52'0 0.0
2018-Jul-15 07:28N 29°23' W 094°52'0 0.0
2018-Jul-15 07:00N 29°23' W 094°52'0 0.0
2018-Jul-15 06:30N 29°23' W 094°52'0 0.0
2018-Jul-15 05:59N 29°23' W 094°52'0 0.0
2018-Jul-15 05:28N 29°23' W 094°52'0 0.0
2018-Jul-15 05:00N 29°23' W 094°52'0 0.0
2018-Jul-15 04:30N 29°23' W 094°52'0 0.0
2018-Jul-15 04:00N 29°23' W 094°52'0 0.0
2018-Jul-15 03:30N 29°23' W 094°52'0 0.0
2018-Jul-15 03:00N 29°23' W 094°52'0 0.0
2018-Jul-15 02:29N 29°23' W 094°52'0 0.0
2018-Jul-15 01:56N 29°23' W 094°52'0 0.0
2018-Jul-15 01:30N 29°23' W 094°52'0 0.0
2018-Jul-15 00:56N 29°23' W 094°52'0 0.0
2018-Jul-15 00:28N 29°23' W 094°52'0 0.0
2018-Jul-14 23:58N 29°23' W 094°52'0 0.0
2018-Jul-14 23:27N 29°23' W 094°52'0 0.0
2018-Jul-14 23:00N 29°23' W 094°52'0 0.0
2018-Jul-14 22:30N 29°23' W 094°52'0 0.0
2018-Jul-14 22:00N 29°23' W 094°52'0 0.0
2018-Jul-14 21:30N 29°23' W 094°52'0 0.0
2018-Jul-14 21:00N 29°23' W 094°52'0 0.0
2018-Jul-14 20:30N 29°23' W 094°52'0 0.0
2018-Jul-14 20:00N 29°23' W 094°52'0 0.0
2018-Jul-14 19:23N 29°23' W 094°52'0 0.0
2018-Jul-14 19:00N 29°23' W 094°52'0 0.0
2018-Jul-14 18:30N 29°23' W 094°52'0 0.0
2018-Jul-14 18:00N 29°23' W 094°52'0 0.0
2018-Jul-14 17:30N 29°23' W 094°52'0 0.0
2018-Jul-14 17:00N 29°23' W 094°52'0 0.0
2018-Jul-14 16:30N 29°23' W 094°52'0 0.0
2018-Jul-14 16:00N 29°23' W 094°52'0 0.0
2018-Jul-14 15:29N 29°23' W 094°52'0 0.0
2018-Jul-14 14:59N 29°23' W 094°52'0 0.4
2018-Jul-14 14:30N 29°23' W 094°52'3 3.0
2018-Jul-14 13:30N 29°23' W 094°49'3 5.4
2018-Jul-14 12:59N 29°26' W 094°50'4 6.0
2018-Jul-14 12:19N 29°29' W 094°52'3 6.1
2018-Jul-14 11:52N 29°32' W 094°54'2 6.3
2018-Jul-14 11:30N 29°34' W 094°55'3 6.9
2018-Jul-14 11:00N 29°36' W 094°57'4 7.2
2018-Jul-14 10:30N 29°40' W 094°58'3 6.7
2018-Jul-14 10:00N 29°42' W 095°01'3 6.3
2018-Jul-14 09:29N 29°45' W 095°04'1 0.6
2018-Jul-14 07:13N 29°46' W 095°05'2 7.0
2018-Jul-14 06:59N 29°44' W 095°03'3 6.5
2018-Jul-14 06:30N 29°42' W 095°01'3 6.6
2018-Jul-14 06:00N 29°40' W 094°58'4 7.6
2018-Jul-14 05:30N 29°36' W 094°57'4 7.3
2018-Jul-14 05:00N 29°33' W 094°55'4 7.0
2018-Jul-14 04:29N 29°30' W 094°52'4 7.1
2018-Jul-14 03:59N 29°27' W 094°50'3 6.8
2018-Jul-14 03:30N 29°24' W 094°49'2 4.2
2018-Jul-14 02:58N 29°22' W 094°49'3 7.4
2018-Jul-14 02:30N 29°23' W 094°53'1 0.0
2018-Jul-13 04:34N 29°23' W 094°53'0 0.0
2018-Jul-13 03:46N 29°23' W 094°53'0 0.0
2018-Jul-12 05:22N 29°23' W 094°53'0 0.0
2018-Jul-12 05:00N 29°23' W 094°53'0 0.0
2018-Jul-12 04:30N 29°23' W 094°53'0 0.0
2018-Jul-12 03:54N 29°23' W 094°53'0 0.0
2018-Jul-12 03:30N 29°23' W 094°53'0 0.0
2018-Jul-12 03:00N 29°23' W 094°53'1 0.1
2018-Jul-11 16:01N 29°23' W 094°52'0 0.0
2018-Jul-11 14:27N 29°23' W 094°52'0 0.0
2018-Jul-11 13:55N 29°23' W 094°52'0 0.0
2018-Jul-11 13:29N 29°23' W 094°52'0 0.0
2018-Jul-11 12:56N 29°23' W 094°52'0 0.0
2018-Jul-11 12:25N 29°23' W 094°52'0 0.0
2018-Jul-11 11:48N 29°23' W 094°52'0 0.0
2018-Jul-11 11:25N 29°23' W 094°52'0 0.0
2018-Jul-11 10:58N 29°23' W 094°52'0 0.0
2018-Jul-11 10:30N 29°23' W 094°52'0 0.0
2018-Jul-11 10:00N 29°23' W 094°52'0 0.0
2018-Jul-11 09:29N 29°23' W 094°52'0 0.0
2018-Jul-11 09:00N 29°23' W 094°52'0 0.0
2018-Jul-11 08:30N 29°23' W 094°52'0 0.0
2018-Jul-11 08:00N 29°23' W 094°52'0 0.0
2018-Jul-11 07:31N 29°23' W 094°52'0 0.1
2018-Jul-11 07:00N 29°23' W 094°52'3 6.3
2018-Jul-11 06:27N 29°22' W 094°48'3 7.2
2018-Jul-11 06:00N 29°25' W 094°50'5 9.5
2018-Jul-11 05:29N 29°29' W 094°52'5 9.6
2018-Jul-11 05:00N 29°33' W 094°55'5 9.4
2018-Jul-11 04:30N 29°37' W 094°57'5 9.9
2018-Jul-11 04:00N 29°42' W 094°60'5 8.8
2018-Jul-11 03:27N 29°45' W 095°04'2 4.8
2018-Jul-11 02:59N 29°47' W 095°04'0 0.6
2018-Jul-11 02:21N 29°47' W 095°05'0 0.4
2018-Jul-11 01:52N 29°47' W 095°05'0 0.2
2018-Jul-11 01:22N 29°47' W 095°05'0 0.0
2018-Jul-10 14:59N 29°47' W 095°05'0 0.2
2018-Jul-10 14:20N 29°47' W 095°05'0 0.3
2018-Jul-10 13:54N 29°47' W 095°05'0 0.1
2018-Jul-10 13:08N 29°47' W 095°05'0 0.0
2018-Jul-10 13:00N 29°47' W 095°05'0 0.0
2018-Jul-10 12:31N 29°47' W 095°05'0 0.0
2018-Jul-10 11:56N 29°47' W 095°05'0 0.0
2018-Jul-10 11:29N 29°47' W 095°05'  

Dump ship's entire track history